createdAt,value
2019-02-21T00:02:11.344Z,76.90
2019-02-21T00:04:39.335Z,77.00
2019-02-21T00:07:07.232Z,77.10
2019-02-21T00:09:35.467Z,77.10
2019-02-21T00:12:03.394Z,77.10
2019-02-21T00:14:31.413Z,77.00
2019-02-21T00:16:59.514Z,77.20
2019-02-21T00:19:27.413Z,77.20
2019-02-21T00:21:55.255Z,77.30
2019-02-21T00:24:23.220Z,77.50
2019-02-21T00:26:51.487Z,77.80
2019-02-21T00:29:19.370Z,77.80
2019-02-21T00:31:47.226Z,78.00
2019-02-21T00:34:15.227Z,78.10
2019-02-21T00:36:43.046Z,78.30
2019-02-21T00:39:11.261Z,78.60
2019-02-21T00:41:39.607Z,78.70
2019-02-21T00:44:07.527Z,78.60
2019-02-21T00:46:36.018Z,78.90
2019-02-21T00:49:03.991Z,79.00
2019-02-21T00:51:31.911Z,79.40
2019-02-21T00:54:00.211Z,79.20
2019-02-21T00:56:28.108Z,79.30
2019-02-21T00:58:56.106Z,79.30
2019-02-21T01:01:24.061Z,79.80
2019-02-21T01:03:52.081Z,79.90
2019-02-21T01:06:19.962Z,80.10
2019-02-21T01:08:48.498Z,80.10
2019-02-21T01:11:16.891Z,80.30
2019-02-21T01:13:45.137Z,80.60
2019-02-21T01:16:13.180Z,80.50
2019-02-21T01:18:41.247Z,81.00
2019-02-21T01:21:09.166Z,80.90
2019-02-21T01:23:37.026Z,80.70
2019-02-21T01:26:04.978Z,81.10
2019-02-21T01:28:33.417Z,81.00
2019-02-21T01:31:01.747Z,81.20
2019-02-21T01:33:30.006Z,81.20
2019-02-21T01:35:57.976Z,81.70
2019-02-21T01:38:25.926Z,81.70
2019-02-21T01:40:54.195Z,81.80
2019-02-21T01:43:22.179Z,81.70
2019-02-21T01:45:50.183Z,82.00
2019-02-21T01:48:18.137Z,82.30
2019-02-21T01:50:46.043Z,82.60
2019-02-21T01:53:13.952Z,82.70
2019-02-21T01:55:42.023Z,82.80
2019-02-21T01:58:10.145Z,82.60
2019-02-21T02:00:38.611Z,83.00
2019-02-21T02:03:06.534Z,83.10
2019-02-21T02:05:34.562Z,82.90
2019-02-21T02:08:02.485Z,83.10
2019-02-21T02:10:30.623Z,83.20
2019-02-21T02:12:58.605Z,83.30
2019-02-21T02:15:26.833Z,83.40
2019-02-21T02:17:54.902Z,83.50
2019-02-21T02:20:22.837Z,83.70
2019-02-21T02:22:51.227Z,84.00
2019-02-21T02:25:19.136Z,83.80
2019-02-21T02:27:47.047Z,83.90
2019-02-21T02:30:15.389Z,83.90
2019-02-21T02:32:43.302Z,84.00
2019-02-21T02:35:11.188Z,83.90
2019-02-21T02:37:39.087Z,83.90
2019-02-21T02:40:07.435Z,84.30
2019-02-21T02:42:35.732Z,84.20
2019-02-21T02:45:04.216Z,84.10
2019-02-21T02:47:32.562Z,84.30
2019-02-21T02:50:00.560Z,84.30
2019-02-21T02:52:28.718Z,84.50
2019-02-21T02:54:56.555Z,84.60
2019-02-21T02:57:24.516Z,85.00
2019-02-21T02:59:52.968Z,84.90
2019-02-21T03:02:20.877Z,86.20
2019-02-21T03:04:48.913Z,86.30
2019-02-21T03:07:18.550Z,85.10
2019-02-21T03:09:46.805Z,85.20
2019-02-21T03:12:17.158Z,86.30
2019-02-21T03:14:45.506Z,87.00
2019-02-21T03:17:13.991Z,87.20
2019-02-21T03:19:42.311Z,87.10
2019-02-21T03:22:10.518Z,87.20
2019-02-21T03:24:57.800Z,87.00
2019-02-21T03:27:26.457Z,87.50
2019-02-21T03:29:54.683Z,86.90
2019-02-21T03:32:23.026Z,87.10
2019-02-21T03:34:51.295Z,87.50
2019-02-21T03:37:20.533Z,87.80
2019-02-21T03:39:48.672Z,88.10
2019-02-21T03:42:18.535Z,89.10
2019-02-21T03:44:46.689Z,88.30
2019-02-21T03:47:15.147Z,88.40
2019-02-21T03:49:43.474Z,88.70
2019-02-21T03:52:11.803Z,88.70
2019-02-21T03:54:40.086Z,88.80
2019-02-21T03:57:08.428Z,89.00
2019-02-21T03:59:36.741Z,89.30
2019-02-21T04:02:05.829Z,89.30
2019-02-21T04:04:33.735Z,89.20
2019-02-21T04:07:01.942Z,89.20
2019-02-21T04:09:29.886Z,88.90
2019-02-21T04:11:57.780Z,89.00
2019-02-21T04:14:25.838Z,88.90
2019-02-21T04:16:53.775Z,88.70
2019-02-21T04:19:21.815Z,88.40
2019-02-21T04:21:49.743Z,88.60
2019-02-21T04:24:17.705Z,89.00
2019-02-21T04:26:45.757Z,89.20
2019-02-21T04:29:14.171Z,89.20
2019-02-21T04:31:42.062Z,89.20
2019-02-21T04:34:10.008Z,89.10
2019-02-21T04:36:37.904Z,88.70
2019-02-21T04:39:06.090Z,89.10
2019-02-21T04:41:34.420Z,89.10
2019-02-21T04:44:03.865Z,89.00
2019-02-21T04:46:32.148Z,89.00
2019-02-21T04:49:00.371Z,89.20
2019-02-21T04:51:28.219Z,89.30
2019-02-21T04:53:56.022Z,89.70
2019-02-21T04:56:24.044Z,90.00
2019-02-21T04:58:52.059Z,89.90
2019-02-21T05:01:19.924Z,90.00
2019-02-21T05:03:47.797Z,90.30
2019-02-21T05:06:15.803Z,90.40
2019-02-21T05:08:43.663Z,90.50
2019-02-21T05:11:11.702Z,90.60
2019-02-21T05:13:39.655Z,91.10
2019-02-21T05:16:07.586Z,90.70
2019-02-21T05:18:35.626Z,90.60
2019-02-21T05:21:03.534Z,90.50
2019-02-21T05:23:31.559Z,90.40
2019-02-21T05:25:59.498Z,90.30
2019-02-21T05:28:31.945Z,90.40
2019-02-21T05:31:14.451Z,90.50
2019-02-21T05:34:01.884Z,90.70
2019-02-21T05:36:49.239Z,90.70
2019-02-21T05:39:39.185Z,90.80
2019-02-21T05:42:32.867Z,90.50
2019-02-21T05:45:18.401Z,90.40
2019-02-21T05:48:05.693Z,90.20
2019-02-21T05:50:53.104Z,90.20
2019-02-21T05:53:43.218Z,90.40
2019-02-21T05:56:29.123Z,90.70
2019-02-21T05:59:19.190Z,90.70
2019-02-21T06:02:21.092Z,90.70
2019-02-21T06:05:23.442Z,90.60
2019-02-21T06:08:19.566Z,90.50
2019-02-21T06:11:05.437Z,90.50
2019-02-21T06:13:58.530Z,90.60
2019-02-21T06:16:41.463Z,90.60
2019-02-21T06:19:27.431Z,90.40
2019-02-21T06:22:20.947Z,90.40
2019-02-21T06:24:54.569Z,90.60
2019-02-21T06:27:26.681Z,90.70
2019-02-21T06:30:07.838Z,90.60
2019-02-21T06:32:35.775Z,90.60
2019-02-21T06:35:04.147Z,90.70
2019-02-21T06:37:32.116Z,90.90
2019-02-21T06:40:00.141Z,91.10
2019-02-21T06:42:28.163Z,91.30
2019-02-21T06:44:56.082Z,91.40
2019-02-21T06:47:24.329Z,91.60
2019-02-21T06:49:52.355Z,91.70
2019-02-21T06:52:20.221Z,92.00
2019-02-21T06:54:48.145Z,92.10
2019-02-21T06:57:17.254Z,92.20
2019-02-21T06:59:45.460Z,92.30
2019-02-21T07:02:13.776Z,92.50
2019-02-21T07:04:41.675Z,92.60
2019-02-21T07:07:10.044Z,92.50
2019-02-21T07:09:37.974Z,92.60
2019-02-21T07:12:05.851Z,92.80
2019-02-21T07:14:46.671Z,93.00
2019-02-21T07:17:14.642Z,93.20
2019-02-21T07:19:42.535Z,93.40
2019-02-21T07:22:17.475Z,93.50
2019-02-21T07:24:41.147Z,93.60
2019-02-21T07:27:09.198Z,93.70
2019-02-21T07:29:38.801Z,93.90
2019-02-21T07:32:06.977Z,94.10
2019-02-21T07:34:34.875Z,94.30
2019-02-21T07:37:02.803Z,94.50
2019-02-21T07:39:36.168Z,94.60
2019-02-21T07:42:00.475Z,94.80
2019-02-21T07:44:28.449Z,95.00
2019-02-21T07:46:56.574Z,95.10
2019-02-21T07:49:25.714Z,95.30
2019-02-21T07:51:53.722Z,95.40
2019-02-21T07:54:21.986Z,95.70
2019-02-21T07:56:49.971Z,96.00
2019-02-21T07:59:17.804Z,96.30
2019-02-21T08:01:45.702Z,96.30
2019-02-21T08:04:13.591Z,96.10
2019-02-21T08:06:41.848Z,96.20
2019-02-21T08:09:10.118Z,96.40
2019-02-21T08:11:39.793Z,96.50
2019-02-21T08:14:08.004Z,96.80
2019-02-21T08:16:36.072Z,97.00
2019-02-21T08:19:04.192Z,97.40
2019-02-21T08:21:32.527Z,97.30
2019-02-21T08:24:00.639Z,97.50
2019-02-21T08:26:28.513Z,97.60
2019-02-21T08:28:56.528Z,97.70
2019-02-21T08:31:24.483Z,97.80
2019-02-21T08:33:59.052Z,97.80
2019-02-21T08:36:26.904Z,97.90
2019-02-21T08:38:54.774Z,97.90
2019-02-21T08:41:25.580Z,98.10
2019-02-21T08:43:52.413Z,97.50
2019-02-21T08:46:20.253Z,97.30
2019-02-21T08:48:48.243Z,97.50
2019-02-21T08:51:18.312Z,97.50
2019-02-21T08:53:45.863Z,97.40
2019-02-21T08:56:13.771Z,97.50
2019-02-21T08:58:41.699Z,97.40
2019-02-21T09:01:09.631Z,97.40
2019-02-21T09:03:37.502Z,97.50
2019-02-21T09:06:05.440Z,97.50
2019-02-21T09:08:36.796Z,97.70
2019-02-21T09:11:04.059Z,97.50
2019-02-21T09:13:32.095Z,97.30
2019-02-21T09:16:00.028Z,96.90
2019-02-21T09:18:27.943Z,97.10
2019-02-21T09:20:55.910Z,96.90
2019-02-21T09:23:23.887Z,96.90
2019-02-21T09:25:51.754Z,96.90
2019-02-21T09:28:19.713Z,96.60
2019-02-21T09:30:47.753Z,96.10
2019-02-21T09:33:17.702Z,95.70
2019-02-21T09:35:45.271Z,95.40
2019-02-21T09:38:13.133Z,95.20
2019-02-21T09:40:42.723Z,95.20
2019-02-21T09:43:10.851Z,95.10
2019-02-21T09:45:38.700Z,94.80
2019-02-21T09:48:06.635Z,94.70
2019-02-21T09:50:35.048Z,94.70
2019-02-21T09:53:03.042Z,94.70
2019-02-21T09:55:31.081Z,94.70
2019-02-21T09:57:59.123Z,94.80
2019-02-21T10:00:27.103Z,94.20
2019-02-21T10:02:56.743Z,93.80
2019-02-21T10:05:24.630Z,93.30
2019-02-21T10:07:52.581Z,92.40
2019-02-21T10:10:20.564Z,92.60
2019-02-21T10:12:48.563Z,92.60
2019-02-21T10:15:24.699Z,92.80
2019-02-21T10:17:52.663Z,92.90
2019-02-21T10:20:20.719Z,92.70
2019-02-21T10:22:48.650Z,91.60
2019-02-21T10:25:18.562Z,91.40
2019-02-21T10:27:46.469Z,91.60
2019-02-21T10:30:15.670Z,91.20
2019-02-21T10:32:43.558Z,91.20
2019-02-21T10:35:11.650Z,91.10
2019-02-21T10:37:39.947Z,91.20
2019-02-21T10:40:08.924Z,91.20
2019-02-21T10:42:36.960Z,90.10
2019-02-21T10:45:06.724Z,89.00
2019-02-21T10:47:34.910Z,89.50
2019-02-21T10:50:03.439Z,89.10
2019-02-21T10:52:31.335Z,88.10
2019-02-21T10:54:59.175Z,86.20
2019-02-21T10:57:27.023Z,87.60
2019-02-21T10:59:55.011Z,88.80
2019-02-21T11:02:23.240Z,86.60
2019-02-21T11:04:54.733Z,85.20
2019-02-21T11:07:20.939Z,84.70
2019-02-21T11:09:48.942Z,83.10
2019-02-21T11:12:18.322Z,84.00
2019-02-21T11:15:23.013Z,84.00
2019-02-21T11:17:49.948Z,83.20
2019-02-21T11:20:18.103Z,83.10
2019-02-21T11:22:46.006Z,80.90
2019-02-21T11:25:13.886Z,81.70
2019-02-21T11:27:42.024Z,80.80
2019-02-21T11:30:12.838Z,79.60
2019-02-21T11:32:40.893Z,79.10
2019-02-21T11:35:08.972Z,79.30
2019-02-21T11:37:43.248Z,77.50
2019-02-21T11:40:08.134Z,78.10
2019-02-21T11:42:36.186Z,78.20
2019-02-21T11:45:04.845Z,76.20
2019-02-21T11:47:32.787Z,76.70
2019-02-21T11:50:01.187Z,75.00
2019-02-21T11:52:29.110Z,74.60
2019-02-21T11:54:56.956Z,73.30
2019-02-21T11:57:24.925Z,73.90
2019-02-21T11:59:52.875Z,72.90
2019-02-21T12:02:20.813Z,70.90
2019-02-21T12:04:48.804Z,68.80
2019-02-21T12:07:16.818Z,67.80
2019-02-21T12:09:44.691Z,68.40
2019-02-21T12:12:12.555Z,66.70
2019-02-21T12:15:02.858Z,66.00
2019-02-21T12:17:30.955Z,65.00
2019-02-21T12:19:58.893Z,65.10
2019-02-21T12:22:26.847Z,64.60
2019-02-21T12:24:54.697Z,63.60
2019-02-21T12:27:22.595Z,62.50
2019-02-21T12:29:50.547Z,61.50
2019-02-21T12:32:19.607Z,62.20
2019-02-21T12:34:47.809Z,60.60
2019-02-21T12:37:15.722Z,59.40
2019-02-21T12:39:44.020Z,60.00
2019-02-21T12:42:12.279Z,60.80
2019-02-21T12:44:40.195Z,59.80
2019-02-21T12:47:08.235Z,57.10
2019-02-21T12:49:36.123Z,56.60
2019-02-21T12:52:04.472Z,57.30
2019-02-21T12:54:32.406Z,58.10
2019-02-21T12:57:00.447Z,57.20
2019-02-21T12:59:28.351Z,57.40
2019-02-21T13:01:56.322Z,57.40
2019-02-21T13:04:24.239Z,57.60
2019-02-21T13:06:52.143Z,58.20
2019-02-21T13:09:20.087Z,58.90
2019-02-21T13:11:48.423Z,59.50
2019-02-21T13:14:16.374Z,59.50
2019-02-21T13:16:44.327Z,59.50
2019-02-21T13:19:12.263Z,58.60
2019-02-21T13:21:40.227Z,57.50
2019-02-21T13:24:08.133Z,56.60
2019-02-21T13:26:36.267Z,55.90
2019-02-21T13:29:04.416Z,55.90
2019-02-21T13:31:32.427Z,55.30
2019-02-21T13:34:00.301Z,56.70
2019-02-21T13:36:28.276Z,56.30
2019-02-21T13:38:56.190Z,55.80
2019-02-21T13:41:24.091Z,57.40
2019-02-21T13:43:52.031Z,57.30
2019-02-21T13:46:20.283Z,56.90
2019-02-21T13:48:48.303Z,56.90
2019-02-21T13:51:16.328Z,56.70
2019-02-21T13:53:44.362Z,56.00
2019-02-21T13:56:12.372Z,55.10
2019-02-21T13:58:40.257Z,54.80
2019-02-21T14:01:08.114Z,54.80
2019-02-21T14:03:36.019Z,54.50
2019-02-21T14:06:04.159Z,54.80
2019-02-21T14:08:32.067Z,54.00
2019-02-21T14:10:59.974Z,54.60
2019-02-21T14:13:28.212Z,55.70
2019-02-21T14:16:11.198Z,54.60
2019-02-21T14:18:39.088Z,54.50
2019-02-21T14:21:07.018Z,53.70
2019-02-21T14:23:35.457Z,53.50
2019-02-21T14:26:03.844Z,54.30
2019-02-21T14:28:37.296Z,54.00
2019-02-21T14:31:07.304Z,54.90
2019-02-21T14:33:34.322Z,54.70
2019-02-21T14:36:02.351Z,55.00
2019-02-21T14:38:30.271Z,54.40
2019-02-21T14:40:58.219Z,54.60
2019-02-21T14:43:26.264Z,54.70
2019-02-21T14:45:54.187Z,55.90
2019-02-21T14:48:22.075Z,56.30
2019-02-21T14:50:50.006Z,55.50
2019-02-21T14:53:18.011Z,55.50
2019-02-21T14:55:45.840Z,54.70
2019-02-21T14:58:13.755Z,55.00
2019-02-21T15:00:41.767Z,55.10
2019-02-21T15:03:21.053Z,55.90
2019-02-21T15:05:39.638Z,55.60
2019-02-21T15:08:07.601Z,55.70
2019-02-21T15:10:35.660Z,55.70
2019-02-21T15:13:03.518Z,55.10
2019-02-21T15:16:15.879Z,55.60
2019-02-21T15:19:01.382Z,55.30
2019-02-21T15:21:29.826Z,55.60
2019-02-21T15:23:57.788Z,55.50
2019-02-21T15:26:25.809Z,56.20
2019-02-21T15:28:53.760Z,55.30
2019-02-21T15:31:21.967Z,55.40
2019-02-21T15:33:49.858Z,56.20
2019-02-21T15:36:17.795Z,56.70
2019-02-21T15:38:45.702Z,56.80
2019-02-21T15:41:13.955Z,57.30
2019-02-21T15:43:41.843Z,57.50
2019-02-21T15:46:09.931Z,57.50
2019-02-21T15:48:38.421Z,57.60
2019-02-21T15:51:06.353Z,58.50
2019-02-21T15:53:34.242Z,58.50
2019-02-21T15:56:02.227Z,58.90
2019-02-21T15:58:30.392Z,58.90
2019-02-21T16:00:58.283Z,59.30
2019-02-21T16:03:26.134Z,59.40
2019-02-21T16:05:54.088Z,59.60
2019-02-21T16:08:22.352Z,59.70
2019-02-21T16:10:50.355Z,60.10
2019-02-21T16:13:18.289Z,60.30
2019-02-21T16:16:21.949Z,60.50
2019-02-21T16:18:48.708Z,61.30
2019-02-21T16:21:16.754Z,61.50
2019-02-21T16:23:44.685Z,62.10
2019-02-21T16:26:12.656Z,62.40
2019-02-21T16:28:40.641Z,62.80
2019-02-21T16:31:08.631Z,63.20
2019-02-21T16:33:36.701Z,63.40
2019-02-21T16:36:04.643Z,63.50
2019-02-21T16:38:32.674Z,64.20
2019-02-21T16:41:00.587Z,64.40
2019-02-21T16:43:28.435Z,65.20
2019-02-21T16:46:07.170Z,65.40
2019-02-21T16:48:26.480Z,65.60
2019-02-21T16:50:54.522Z,66.30
2019-02-21T16:53:22.463Z,66.80
2019-02-21T16:55:50.351Z,67.10
2019-02-21T16:58:18.560Z,67.70
2019-02-21T17:00:52.734Z,68.20
2019-02-21T17:03:16.145Z,68.20
2019-02-21T17:05:44.055Z,68.60
2019-02-21T17:08:12.015Z,68.90
2019-02-21T17:10:39.917Z,69.10
2019-02-21T17:13:07.951Z,69.30
2019-02-21T17:16:11.194Z,69.50
2019-02-21T17:18:38.486Z,70.10
2019-02-21T17:21:06.572Z,69.20
2019-02-21T17:23:34.871Z,69.20
2019-02-21T17:26:02.832Z,69.20
2019-02-21T17:28:34.176Z,69.30
2019-02-21T17:31:02.210Z,69.60
2019-02-21T17:33:30.174Z,69.60
2019-02-21T17:35:58.193Z,69.80
2019-02-21T17:38:26.089Z,69.60
2019-02-21T17:40:54.195Z,69.50
2019-02-21T17:43:22.178Z,70.00
2019-02-21T17:45:50.556Z,70.10
2019-02-21T17:48:20.546Z,70.20
2019-02-21T17:50:48.991Z,70.00
2019-02-21T17:53:17.770Z,70.30
2019-02-21T17:55:46.551Z,70.20
2019-02-21T17:58:17.205Z,70.40
2019-02-21T18:00:45.778Z,70.50
2019-02-21T18:03:14.654Z,70.70
2019-02-21T18:05:43.470Z,70.70
2019-02-21T18:08:12.232Z,70.80
2019-02-21T18:10:40.935Z,70.90
2019-02-21T18:13:09.690Z,71.10
2019-02-21T18:16:15.301Z,71.40
2019-02-21T18:18:42.883Z,71.20
2019-02-21T18:21:11.811Z,71.50
2019-02-21T18:23:40.682Z,71.40
2019-02-21T18:26:20.630Z,71.90
2019-02-21T18:28:49.547Z,72.10
2019-02-21T18:31:18.413Z,72.20
2019-02-21T18:33:47.267Z,72.60
2019-02-21T18:36:16.089Z,72.60
2019-02-21T18:38:45.086Z,72.60
2019-02-21T18:41:14.092Z,72.40
2019-02-21T18:43:42.861Z,72.80
2019-02-21T18:46:11.679Z,73.00
2019-02-21T18:48:40.394Z,73.20
2019-02-21T18:51:09.117Z,73.30
2019-02-21T18:53:37.974Z,73.40
2019-02-21T18:56:07.028Z,73.70
2019-02-21T18:58:35.815Z,73.80
2019-02-21T19:01:04.747Z,74.50
2019-02-21T19:03:35.825Z,73.80
2019-02-21T19:06:04.535Z,73.80
2019-02-21T19:08:33.355Z,73.30
2019-02-21T19:11:03.127Z,73.50
2019-02-21T19:13:47.446Z,73.60
2019-02-21T19:16:16.343Z,74.00
2019-02-21T19:18:45.210Z,74.30
2019-02-21T19:21:14.227Z,74.50
2019-02-21T19:23:43.083Z,74.80
2019-02-21T19:26:11.970Z,74.80
2019-02-21T19:28:40.923Z,75.30
2019-02-21T19:31:13.045Z,75.60
2019-02-21T19:33:42.930Z,75.70
2019-02-21T19:36:11.770Z,75.80
2019-02-21T19:38:40.676Z,76.10
2019-02-21T19:41:10.010Z,76.30
2019-02-21T19:44:07.966Z,76.70
2019-02-21T19:46:26.259Z,77.00
2019-02-21T19:48:54.989Z,76.70
2019-02-21T19:51:23.785Z,76.70
2019-02-21T19:53:52.600Z,76.70
2019-02-21T19:56:21.389Z,77.20
2019-02-21T19:58:50.829Z,77.10
2019-02-21T20:01:19.618Z,77.00
2019-02-21T20:03:49.707Z,76.90
2019-02-21T20:06:18.703Z,77.10
2019-02-21T20:08:47.530Z,77.60
2019-02-21T20:11:16.435Z,77.40
2019-02-21T20:14:10.404Z,77.50
2019-02-21T20:16:39.191Z,77.60
2019-02-21T20:19:07.956Z,77.90
2019-02-21T20:21:36.765Z,77.60
2019-02-21T20:24:05.667Z,77.80
2019-02-21T20:26:34.467Z,77.70
2019-02-21T20:29:04.376Z,77.70
2019-02-21T20:31:33.119Z,77.50
2019-02-21T20:34:01.862Z,78.00
2019-02-21T20:36:30.836Z,78.30
2019-02-21T20:39:01.279Z,78.50
2019-02-21T20:41:30.086Z,78.50
2019-02-21T20:43:58.882Z,78.40
2019-02-21T20:46:29.388Z,78.40
2019-02-21T20:48:58.379Z,78.50
2019-02-21T20:51:27.155Z,78.20
2019-02-21T20:53:59.130Z,78.50
2019-02-21T20:56:27.827Z,78.60
2019-02-21T20:58:56.650Z,79.20
2019-02-21T21:01:26.820Z,79.20
2019-02-21T21:03:55.630Z,79.30
2019-02-21T21:06:24.426Z,79.50
2019-02-21T21:08:53.407Z,79.70
2019-02-21T21:11:22.089Z,80.00
2019-02-21T21:14:07.666Z,80.20
2019-02-21T21:16:36.446Z,80.40
2019-02-21T21:19:05.278Z,80.50
2019-02-21T21:21:34.015Z,80.60
2019-02-21T21:24:03.092Z,80.30
2019-02-21T21:26:57.968Z,80.30
2019-02-21T21:29:26.723Z,80.30
2019-02-21T21:31:55.546Z,80.60
2019-02-21T21:34:24.230Z,81.00
2019-02-21T21:36:52.693Z,81.40
2019-02-21T21:39:21.240Z,81.70
2019-02-21T21:41:49.450Z,82.10
2019-02-21T21:44:17.818Z,82.20
2019-02-21T21:46:46.078Z,82.40
2019-02-21T21:49:13.987Z,83.00
2019-02-21T21:51:41.958Z,83.50
2019-02-21T21:54:09.851Z,83.50
2019-02-21T21:56:37.830Z,83.80
2019-02-21T21:59:05.737Z,84.00
2019-02-21T22:01:33.714Z,84.70
2019-02-21T22:04:01.822Z,84.10
2019-02-21T22:06:29.749Z,84.00
2019-02-21T22:09:04.500Z,84.00
2019-02-21T22:11:27.486Z,84.00
2019-02-21T22:14:16.959Z,84.30
2019-02-21T22:16:44.878Z,84.30
2019-02-21T22:19:12.848Z,85.20
2019-02-21T22:21:40.803Z,85.50
2019-02-21T22:24:08.782Z,85.70
2019-02-21T22:26:36.727Z,86.40
2019-02-21T22:29:04.768Z,86.70
2019-02-21T22:31:33.371Z,88.10
2019-02-21T22:34:01.374Z,87.80
2019-02-21T22:36:29.322Z,88.30
2019-02-21T22:38:57.170Z,88.80
2019-02-21T22:41:25.090Z,89.30
2019-02-21T22:43:53.107Z,89.50
2019-02-21T22:46:21.141Z,89.70
2019-02-21T22:48:49.367Z,90.00
2019-02-21T22:51:17.206Z,90.30
2019-02-21T22:53:45.220Z,90.40
2019-02-21T22:56:13.069Z,90.60
2019-02-21T22:58:44.918Z,90.70
2019-02-21T23:01:30.553Z,90.90
2019-02-21T23:04:25.688Z,91.20
2019-02-21T23:07:26.726Z,91.30
2019-02-21T23:09:54.742Z,91.50
2019-02-21T23:12:22.637Z,91.70
2019-02-21T23:14:50.463Z,91.90
2019-02-21T23:17:19.870Z,92.10
2019-02-21T23:19:47.770Z,92.20
2019-02-21T23:22:16.106Z,92.30
2019-02-21T23:24:44.222Z,92.50
2019-02-21T23:27:12.355Z,93.00
2019-02-21T23:29:40.972Z,92.80
2019-02-21T23:32:09.391Z,93.00
2019-02-21T23:34:39.551Z,93.20
2019-02-21T23:37:08.909Z,93.20
2019-02-21T23:39:38.554Z,93.50
2019-02-21T23:42:07.358Z,93.60
2019-02-21T23:44:35.294Z,93.70
2019-02-21T23:47:03.416Z,93.70
2019-02-21T23:49:31.599Z,93.80
2019-02-21T23:52:00.010Z,94.10
2019-02-21T23:54:27.917Z,93.90
2019-02-21T23:56:55.863Z,94.10
2019-02-21T23:59:23.738Z,94.10
